Time;durP1;ratioP1;P1;durP2;ratioP2;P2;SDS_P1;SDS_P2;PMS_P1;PMS_P2;Temp;Humidity;BMP_temperature;BMP_pressure;BME280_temperature;BME280_humidity;BME280_pressure;Samples;Min_cycle;Max_cycle;Signal;HPM_P1;HPM_P2
2022/07/29 00:00:28;;;;;;;0.30;0.30;;;18.90;91.90;;;;;;4446387;32;20068;-73
2022/07/29 00:02:54;;;;;;;0.30;0.30;;;18.80;91.90;;;;;;4445971;32;20489;-73
2022/07/29 00:05:19;;;;;;;0.30;0.30;;;18.80;91.90;;;;;;4444496;32;20131;-73
2022/07/29 00:07:45;;;;;;;1.83;0.88;;;18.90;91.90;;;;;;4447597;32;20069;-73
2022/07/29 00:10:10;;;;;;;1.40;0.50;;;18.90;92.10;;;;;;4448430;32;20154;-73
2022/07/29 00:12:36;;;;;;;0.32;0.30;;;18.90;92.30;;;;;;4445831;32;20508;-73
2022/07/29 00:15:02;;;;;;;0.77;0.40;;;18.80;92.10;;;;;;4445004;32;20069;-73
2022/07/29 00:17:27;;;;;;;0.30;0.30;;;18.80;92.50;;;;;;4445244;32;20098;-73
2022/07/29 00:19:53;;;;;;;0.70;0.70;;;18.80;92.50;;;;;;4444701;32;20068;-73
2022/07/29 00:22:19;;;;;;;0.43;0.43;;;18.70;92.50;;;;;;4428220;32;20163;-73
2022/07/29 00:24:47;;;;;;;0.40;0.40;;;18.60;92.80;;;;;;4430934;32;20112;-73
2022/07/29 00:27:12;;;;;;;13.55;1.95;;;18.60;92.80;;;;;;4444791;32;20501;-73
2022/07/29 00:29:38;;;;;;;3.50;1.17;;;18.60;92.90;;;;;;4454374;32;20130;-74
2022/07/29 00:32:03;;;;;;;1.40;0.88;;;18.60;92.80;;;;;;4460848;32;20069;-73
2022/07/29 00:35:46;;;;;;;0.40;0.40;;;18.60;93.10;;;;;;4460056;32;20082;-73
2022/07/29 00:37:15;;;;;;;0.65;0.65;;;18.60;93.10;;;;;;4458679;32;20548;-73
2022/07/29 00:39:41;;;;;;;0.32;0.32;;;18.60;93.20;;;;;;4445887;32;20072;-75
2022/07/29 00:42:07;;;;;;;0.43;0.43;;;18.60;93.60;;;;;;4444700;32;20076;-74
2022/07/29 00:44:38;;;;;;;0.47;0.45;;;18.50;93.40;;;;;;4453662;32;20512;-74
2022/07/29 00:47:03;;;;;;;0.37;0.37;;;18.50;93.60;;;;;;4445501;32;20072;-74
2022/07/29 00:49:29;;;;;;;0.90;0.65;;;18.50;93.70;;;;;;4444817;32;20559;-74
2022/07/29 00:51:54;;;;;;;0.32;0.32;;;18.40;93.80;;;;;;4431538;32;20065;-74
2022/07/29 00:54:20;;;;;;;0.40;0.40;;;18.40;94.20;;;;;;4428601;32;20082;-75
2022/07/29 00:56:46;;;;;;;0.30;0.30;;;18.30;94.20;;;;;;4445016;32;20509;-75
2022/07/29 00:59:11;;;;;;;0.52;0.52;;;18.30;94.40;;;;;;4445274;32;20080;-75
2022/07/29 01:01:37;;;;;;;0.30;0.30;;;18.20;94.90;;;;;;4453310;32;20064;-74
2022/07/29 01:04:02;;;;;;;0.52;0.52;;;18.20;94.80;;;;;;4459851;32;20069;-74
2022/07/29 01:06:28;;;;;;;0.20;0.20;;;18.20;94.90;;;;;;4459974;32;20078;-75
2022/07/29 01:08:54;;;;;;;0.43;0.43;;;18.10;95.10;;;;;;4452462;32;20103;-74
2022/07/29 01:11:20;;;;;;;0.40;0.40;;;18.20;95.10;;;;;;4447042;32;20124;-74
2022/07/29 01:13:47;;;;;;;0.30;0.30;;;18.10;95.30;;;;;;4447568;32;20078;-74
2022/07/29 01:16:22;;;;;;;0.50;0.50;;;18.10;95.60;;;;;;4447556;32;20531;-75
2022/07/29 01:18:53;;;;;;;0.52;0.52;;;18.10;95.50;;;;;;4457990;32;20065;-74
2022/07/29 01:21:57;;;;;;;2.20;0.82;;;18.10;95.50;;;;;;4454924;32;20122;-75
2022/07/29 01:24:33;;;;;;;0.20;0.20;;;18.10;95.70;;;;;;4445739;32;20080;-75
2022/07/29 01:27:14;;;;;;;0.20;0.20;;;18.10;95.80;;;;;;4463139;32;20073;-74
2022/07/29 01:29:46;;;;;;;11.68;0.52;;;18.00;96.10;;;;;;4463478;32;20073;-74
2022/07/29 01:32:15;;;;;;;0.50;0.50;;;18.00;96.30;;;;;;4463641;32;20068;-74
2022/07/29 01:34:49;;;;;;;0.30;0.30;;;18.00;96.40;;;;;;4463857;32;20127;-74
2022/07/29 01:37:22;;;;;;;0.68;0.57;;;18.00;96.60;;;;;;4463455;32;20485;-74
2022/07/29 01:39:51;;;;;;;0.30;0.30;;;17.90;96.60;;;;;;4463458;32;20109;-74
2022/07/29 01:42:31;;;;;;;0.30;0.30;;;17.90;96.70;;;;;;4463720;32;20065;-74
2022/07/29 01:45:08;;;;;;;1.15;0.62;;;17.90;96.80;;;;;;4463229;32;20092;-74
2022/07/29 01:47:42;;;;;;;0.30;0.30;;;17.90;97.00;;;;;;4462363;32;20080;-74
2022/07/29 01:50:12;;;;;;;0.90;0.50;;;17.90;97.20;;;;;;4451635;32;20104;-74
2022/07/29 01:52:46;;;;;;;1.50;0.80;;;17.90;97.00;;;;;;4428541;32;20073;-74
2022/07/29 01:55:17;;;;;;;0.30;0.30;;;17.80;97.30;;;;;;4437731;32;20074;-74
2022/07/29 01:57:47;;;;;;;0.30;0.30;;;17.80;97.50;;;;;;4449053;32;20089;-74
2022/07/29 02:00:13;;;;;;;0.40;0.40;;;17.80;97.50;;;;;;4449363;32;20093;-74
2022/07/29 02:02:42;;;;;;;0.40;0.40;;;17.90;97.40;;;;;;4447627;32;20065;-74
2022/07/29 02:05:11;;;;;;;0.35;0.35;;;17.90;97.40;;;;;;4447919;32;20127;-74
2022/07/29 02:07:37;;;;;;;0.50;0.50;;;17.80;97.60;;;;;;4446798;32;20073;-74
2022/07/29 02:10:04;;;;;;;0.40;0.40;;;17.80;97.80;;;;;;4448634;32;20623;-74
2022/07/29 02:12:32;;;;;;;0.35;0.35;;;17.80;98.00;;;;;;4447318;32;20064;-74
2022/07/29 02:15:00;;;;;;;0.35;0.35;;;17.70;97.90;;;;;;4448229;32;20069;-74
2022/07/29 02:17:35;;;;;;;0.30;0.30;;;17.60;98.20;;;;;;4448383;32;20123;-74
2022/07/29 02:20:03;;;;;;;0.35;0.35;;;17.60;98.30;;;;;;4446958;32;20085;-74
2022/07/29 02:22:30;;;;;;;0.60;0.50;;;17.60;98.50;;;;;;4429188;32;20591;-74
2022/07/29 02:24:58;;;;;;;2.72;0.73;;;17.60;98.70;;;;;;4433650;32;20482;-74
2022/07/29 02:27:24;;;;;;;0.20;0.20;;;17.60;98.60;;;;;;4448670;32;20130;-73
2022/07/29 02:29:53;;;;;;;0.62;0.50;;;17.70;98.70;;;;;;4449606;32;20081;-74
2022/07/29 02:32:21;;;;;;;0.30;0.30;;;17.70;98.80;;;;;;4447545;32;20081;-74
2022/07/29 02:34:48;;;;;;;0.30;0.30;;;17.70;99.20;;;;;;4446779;32;20136;-74
2022/07/29 02:37:16;;;;;;;0.88;0.62;;;17.70;98.80;;;;;;4447537;32;20127;-74
2022/07/29 02:39:44;;;;;;;0.40;0.40;;;17.70;98.60;;;;;;4462937;32;20160;-74
2022/07/29 02:42:13;;;;;;;0.50;0.50;;;17.70;98.60;;;;;;4463694;32;20081;-74
2022/07/29 02:44:39;;;;;;;10.75;0.70;;;17.70;98.80;;;;;;4462882;32;20081;-74
2022/07/29 02:47:19;;;;;;;0.30;0.30;;;17.60;98.90;;;;;;4463661;32;20065;-74
2022/07/29 02:49:59;;;;;;;0.40;0.40;;;17.60;98.90;;;;;;4448653;32;20077;-74
2022/07/29 02:52:39;;;;;;;0.55;0.55;;;17.70;98.80;;;;;;4431046;32;20064;-74
2022/07/29 02:55:12;;;;;;;0.20;0.20;;;17.60;99.10;;;;;;4433888;32;20097;-74
2022/07/29 02:57:46;;;;;;;0.68;0.60;;;17.60;99.10;;;;;;4447923;32;20081;-74
2022/07/29 03:00:12;;;;;;;0.40;0.40;;;17.70;99.10;;;;;;4447307;32;20122;-74
2022/07/29 03:02:43;;;;;;;0.30;0.30;;;17.60;99.10;;;;;;4447945;32;20189;-74
2022/07/29 03:05:15;;;;;;;0.30;0.30;;;17.60;99.30;;;;;;4447280;32;20089;-74
2022/07/29 03:07:44;;;;;;;0.50;0.50;;;17.60;99.30;;;;;;4447893;32;20089;-73
2022/07/29 03:10:09;;;;;;;0.37;0.37;;;17.60;99.50;;;;;;4456718;32;20405;-74
2022/07/29 03:12:36;;;;;;;0.30;0.30;;;17.60;99.50;;;;;;4463351;32;20072;-74
2022/07/29 03:15:02;;;;;;;0.73;0.40;;;17.50;99.60;;;;;;4463180;32;20061;-74
2022/07/29 03:17:27;;;;;;;0.22;0.22;;;17.60;99.90;;;;;;4462320;32;20126;-74
2022/07/29 03:19:54;;;;;;;0.73;0.62;;;17.50;99.80;;;;;;4449477;32;20060;-74
2022/07/29 03:22:20;;;;;;;0.32;0.32;;;17.50;99.90;;;;;;4433261;32;20123;-74
2022/07/29 03:24:46;;;;;;;0.50;0.50;;;17.40;99.90;;;;;;4434997;32;20069;-74
2022/07/29 03:27:11;;;;;;;0.55;0.55;;;17.40;99.90;;;;;;4449116;32;20078;-73
2022/07/29 03:29:36;;;;;;;0.73;0.70;;;17.40;99.90;;;;;;4447397;32;20070;-74
2022/07/29 03:32:04;;;;;;;0.30;0.30;;;17.40;99.90;;;;;;4447877;32;20076;-74
2022/07/29 03:34:30;;;;;;;0.30;0.30;;;17.40;99.90;;;;;;4446347;32;20087;-74
2022/07/29 03:36:55;;;;;;;0.28;0.28;;;17.40;99.90;;;;;;4446899;32;20516;-74
2022/07/29 03:39:25;;;;;;;0.30;0.30;;;17.40;99.90;;;;;;4449109;32;20138;-74
2022/07/29 03:41:54;;;;;;;2.78;0.60;;;17.40;99.90;;;;;;4463655;32;20133;-74
2022/07/29 03:44:21;;;;;;;0.43;0.43;;;17.30;99.90;;;;;;4449870;32;20057;-74
2022/07/29 03:46:48;;;;;;;9.02;0.57;;;17.30;99.90;;;;;;4447947;32;20422;-74
2022/07/29 03:49:16;;;;;;;0.50;0.50;;;17.30;99.90;;;;;;4447721;32;20517;-74
2022/07/29 03:51:41;;;;;;;0.52;0.52;;;17.30;99.90;;;;;;4436096;32;20831;-74
2022/07/29 03:54:07;;;;;;;0.47;0.35;;;17.40;99.90;;;;;;4428166;32;20422;-74
2022/07/29 03:56:37;;;;;;;0.45;0.45;;;17.30;99.90;;;;;;4446137;32;20132;-74
2022/07/29 03:59:03;;;;;;;0.60;0.60;;;17.30;99.90;;;;;;4447894;32;20069;-74
2022/07/29 04:01:32;;;;;;;0.37;0.37;;;17.40;99.90;;;;;;4447390;32;20422;-74
2022/07/29 04:03:57;;;;;;;0.57;0.40;;;17.30;99.90;;;;;;4446976;32;20477;-74
2022/07/29 04:06:23;;;;;;;0.30;0.30;;;17.40;99.90;;;;;;4447703;32;20081;-74
2022/07/29 04:08:48;;;;;;;13.85;1.10;;;17.30;99.90;;;;;;4447877;32;20065;-74
2022/07/29 04:11:14;;;;;;;0.80;0.62;;;17.30;99.90;;;;;;4460054;32;20213;-74
2022/07/29 04:13:39;;;;;;;1.37;0.75;;;17.40;99.90;;;;;;4461970;32;20064;-74
2022/07/29 04:16:05;;;;;;;0.30;0.30;;;17.40;99.90;;;;;;4461373;32;20069;-74
2022/07/29 04:18:30;;;;;;;0.20;0.20;;;17.40;99.90;;;;;;4460413;32;20554;-74
2022/07/29 04:20:58;;;;;;;0.25;0.25;;;17.30;99.90;;;;;;4457930;32;20169;-74
2022/07/29 04:23:24;;;;;;;1.17;0.88;;;17.30;99.90;;;;;;4444075;32;20065;-74
2022/07/29 04:25:49;;;;;;;0.30;0.30;;;17.30;99.90;;;;;;4457301;32;20125;-74
2022/07/29 04:28:15;;;;;;;0.32;0.32;;;17.30;99.90;;;;;;4461761;32;20112;-74
2022/07/29 04:30:40;;;;;;;3.75;0.50;;;17.30;99.90;;;;;;4460064;32;20072;-74
2022/07/29 04:33:06;;;;;;;0.60;0.60;;;17.20;99.90;;;;;;4461687;32;20065;-74
2022/07/29 04:35:37;;;;;;;0.68;0.68;;;17.30;99.90;;;;;;4462722;32;20116;-74
2022/07/29 04:38:03;;;;;;;0.37;0.37;;;17.30;99.90;;;;;;4463297;32;20520;-74
2022/07/29 04:40:29;;;;;;;0.50;0.50;;;17.30;99.90;;;;;;4459262;32;20118;-74
2022/07/29 04:42:54;;;;;;;0.40;0.40;;;17.30;99.90;;;;;;4461192;32;20503;-74
2022/07/29 04:45:20;;;;;;;0.70;0.70;;;17.30;99.90;;;;;;4460795;32;20523;-74
2022/07/29 04:47:45;;;;;;;0.22;0.22;;;17.30;99.90;;;;;;4461895;32;20065;-74
2022/07/29 04:50:11;;;;;;;0.50;0.50;;;17.40;99.90;;;;;;4448198;32;81936;-74
2022/07/29 04:52:36;;;;;;;1.27;0.95;;;17.50;99.90;;;;;;4435644;32;20089;-74
2022/07/29 04:55:04;;;;;;;0.40;0.40;;;17.50;99.90;;;;;;4448360;32;20064;-74
2022/07/29 04:57:29;;;;;;;0.30;0.30;;;17.50;99.90;;;;;;4458053;32;20078;-74
2022/07/29 04:59:55;;;;;;;0.80;0.60;;;17.50;99.90;;;;;;4450323;32;20706;-74
2022/07/29 05:02:21;;;;;;;0.43;0.43;;;17.40;99.90;;;;;;4452756;32;20519;-74
2022/07/29 05:04:47;;;;;;;2.83;1.10;;;17.50;99.90;;;;;;4451600;32;20064;-74
2022/07/29 05:07:12;;;;;;;0.35;0.35;;;17.50;99.90;;;;;;4440956;32;20092;-74
2022/07/29 05:09:38;;;;;;;0.52;0.52;;;17.50;99.90;;;;;;4453228;32;20563;-74
2022/07/29 05:12:04;;;;;;;0.28;0.28;;;17.50;99.90;;;;;;4451231;32;20133;-74
2022/07/29 05:14:29;;;;;;;1.73;1.05;;;17.50;99.90;;;;;;4458587;32;20512;-74
2022/07/29 05:16:56;;;;;;;1.17;0.93;;;17.50;99.90;;;;;;4462202;32;20470;-74
2022/07/29 05:19:23;;;;;;;1.37;1.10;;;17.50;99.90;;;;;;4459586;32;20077;-74
2022/07/29 05:21:48;;;;;;;0.20;0.20;;;17.50;99.90;;;;;;4440572;32;20060;-74
2022/07/29 05:24:14;;;;;;;9.50;0.57;;;17.40;99.90;;;;;;4429116;32;20089;-74
2022/07/29 05:26:40;;;;;;;11.20;2.08;;;17.40;99.90;;;;;;4444136;32;20058;-74
2022/07/29 05:29:05;;;;;;;1.05;0.75;;;17.50;99.90;;;;;;4445675;32;20061;-74
2022/07/29 05:31:31;;;;;;;0.57;0.52;;;17.50;99.90;;;;;;4440757;32;20205;-74
2022/07/29 05:33:57;;;;;;;0.30;0.30;;;17.50;99.90;;;;;;4438877;32;20060;-74
2022/07/29 05:36:22;;;;;;;0.47;0.47;;;17.50;99.90;;;;;;4461367;32;20532;-74
2022/07/29 05:38:48;;;;;;;0.40;0.40;;;17.50;99.90;;;;;;4459488;32;20089;-74
2022/07/29 05:41:13;;;;;;;0.40;0.40;;;17.50;99.90;;;;;;4451027;32;20072;-74
2022/07/29 05:43:39;;;;;;;5.55;0.45;;;17.50;99.90;;;;;;4461485;32;20061;-74
2022/07/29 05:46:04;;;;;;;0.20;0.20;;;17.60;99.90;;;;;;4455830;32;20082;-74
2022/07/29 05:48:30;;;;;;;0.30;0.30;;;17.60;99.90;;;;;;4445253;32;20068;-74
2022/07/29 05:50:55;;;;;;;0.57;0.57;;;17.60;99.90;;;;;;4441437;32;20139;-74
2022/07/29 05:53:21;;;;;;;0.32;0.32;;;17.70;99.90;;;;;;4426887;32;20084;-74
2022/07/29 05:55:47;;;;;;;3.45;0.60;;;17.80;99.90;;;;;;4453277;32;20119;-74
2022/07/29 05:58:13;;;;;;;1.15;0.98;;;18.00;99.90;;;;;;4464404;32;20086;-74
2022/07/29 06:00:38;;;;;;;2.25;0.73;;;18.00;99.90;;;;;;4460504;32;20057;-74
2022/07/29 06:03:04;;;;;;;1.27;0.60;;;18.10;99.90;;;;;;4453056;32;20430;-74
2022/07/29 06:05:29;;;;;;;0.73;0.70;;;18.20;99.90;;;;;;4458689;32;20064;-74
2022/07/29 06:07:55;;;;;;;5.25;0.85;;;18.30;99.90;;;;;;4463186;32;20069;-74
2022/07/29 06:10:20;;;;;;;0.47;0.47;;;18.30;99.50;;;;;;4463964;32;20467;-74
2022/07/29 06:12:46;;;;;;;1.17;0.90;;;18.30;99.50;;;;;;4447333;32;20550;-74
2022/07/29 06:15:11;;;;;;;10.40;1.60;;;18.40;99.90;;;;;;4447166;32;20061;-74
2022/07/29 06:17:37;;;;;;;0.82;0.82;;;18.50;99.90;;;;;;4451519;32;20089;-74
2022/07/29 06:20:03;;;;;;;0.37;0.37;;;18.50;99.30;;;;;;4461881;32;20089;-74
2022/07/29 06:22:29;;;;;;;0.37;0.37;;;18.50;99.10;;;;;;4445270;32;20123;-74
2022/07/29 06:24:54;;;;;;;0.30;0.30;;;18.50;99.30;;;;;;4448595;32;20068;-74
2022/07/29 06:27:19;;;;;;;2.08;0.85;;;18.50;99.40;;;;;;4462342;32;20060;-74
2022/07/29 06:29:45;;;;;;;0.43;0.43;;;18.60;99.00;;;;;;4462127;32;20433;-74
2022/07/29 06:32:11;;;;;;;0.88;0.80;;;18.70;99.20;;;;;;4452471;32;20076;-74
2022/07/29 06:34:36;;;;;;;0.40;0.40;;;18.80;98.80;;;;;;4453017;32;20516;-74
2022/07/29 06:37:09;;;;;;;0.30;0.30;;;18.80;98.70;;;;;;4461194;32;20078;-74
2022/07/29 06:39:36;;;;;;;2.30;1.05;;;18.70;99.00;;;;;;4461561;32;20409;-74
2022/07/29 06:42:03;;;;;;;4.62;1.42;;;18.80;98.90;;;;;;4454266;32;20461;-74
2022/07/29 06:44:29;;;;;;;0.30;0.30;;;18.90;98.80;;;;;;4457578;32;20072;-74
2022/07/29 06:46:55;;;;;;;0.40;0.40;;;18.90;98.50;;;;;;4455538;32;20077;-74
2022/07/29 06:49:20;;;;;;;0.20;0.20;;;18.90;98.60;;;;;;4461722;32;20060;-74
2022/07/29 06:51:46;;;;;;;0.30;0.30;;;18.90;98.60;;;;;;4448341;32;20072;-74
2022/07/29 06:54:11;;;;;;;2.08;1.30;;;19.00;98.60;;;;;;4440830;32;20113;-74
2022/07/29 06:56:37;;;;;;;0.32;0.32;;;19.00;98.40;;;;;;4461201;32;20118;-74
2022/07/29 06:59:04;;;;;;;0.45;0.40;;;19.10;98.70;;;;;;4463157;32;20069;-74
2022/07/29 07:01:30;;;;;;;0.30;0.30;;;19.20;98.70;;;;;;4454934;32;20663;-74
2022/07/29 07:03:56;;;;;;;0.40;0.40;;;19.30;98.30;;;;;;4450289;32;20061;-74
2022/07/29 07:06:21;;;;;;;0.37;0.37;;;19.40;98.00;;;;;;4460117;32;20065;-74
2022/07/29 07:08:47;;;;;;;0.93;0.45;;;19.50;97.90;;;;;;4460564;32;20060;-74
2022/07/29 07:11:12;;;;;;;29.92;1.50;;;19.60;97.70;;;;;;4455888;32;20065;-74
2022/07/29 07:13:38;;;;;;;1.55;0.70;;;19.70;97.60;;;;;;4445644;32;20062;-74
2022/07/29 07:16:04;;;;;;;0.60;0.60;;;19.70;97.50;;;;;;4446764;32;20073;-74
2022/07/29 07:18:30;;;;;;;0.25;0.25;;;19.80;97.80;;;;;;4456016;32;20068;-74
2022/07/29 07:20:56;;;;;;;0.85;0.47;;;19.90;97.80;;;;;;4456243;32;20130;-74
2022/07/29 07:23:22;;;;;;;0.30;0.30;;;20.10;97.30;;;;;;4439317;32;20123;-74
2022/07/29 07:25:47;;;;;;;0.68;0.68;;;20.20;97.40;;;;;;4454133;32;20075;-74
2022/07/29 07:28:13;;;;;;;0.40;0.40;;;20.50;97.30;;;;;;4460795;32;20180;-74
2022/07/29 07:30:39;;;;;;;0.50;0.50;;;20.60;96.30;;;;;;4458309;32;20057;-74
2022/07/29 07:33:05;;;;;;;0.45;0.45;;;20.80;96.20;;;;;;4450767;32;20057;-74
2022/07/29 07:35:30;;;;;;;1.40;1.02;;;21.00;96.40;;;;;;4457537;32;20090;-74
2022/07/29 07:37:56;;;;;;;0.40;0.40;;;21.00;95.10;;;;;;4460314;32;20060;-74
2022/07/29 07:40:22;;;;;;;2.75;0.73;;;21.10;95.30;;;;;;4460930;32;20069;-74
2022/07/29 07:42:48;;;;;;;0.40;0.40;;;21.30;94.60;;;;;;4461192;32;20061;-74
2022/07/29 07:45:13;;;;;;;0.55;0.55;;;21.30;94.30;;;;;;4460033;32;20423;-74
2022/07/29 07:47:39;;;;;;;0.95;0.62;;;21.40;94.10;;;;;;4460018;32;20110;-74
2022/07/29 07:50:06;;;;;;;0.30;0.30;;;21.50;94.50;;;;;;4460565;32;20081;-74
2022/07/29 07:52:32;;;;;;;0.37;0.37;;;21.70;94.70;;;;;;4442558;32;20077;-74
2022/07/29 07:54:58;;;;;;;0.20;0.20;;;21.90;94.10;;;;;;4441251;32;20076;-74
2022/07/29 07:57:23;;;;;;;0.30;0.30;;;22.20;93.20;;;;;;4445051;32;20073;-74
2022/07/29 07:59:49;;;;;;;0.30;0.30;;;22.20;92.70;;;;;;4445024;32;20073;-74
2022/07/29 08:02:14;;;;;;;0.22;0.22;;;22.20;92.70;;;;;;4434856;32;20132;-74
2022/07/29 08:04:40;;;;;;;1.55;0.93;;;22.10;92.90;;;;;;4437922;32;20112;-74
2022/07/29 08:07:07;;;;;;;0.22;0.22;;;22.00;92.70;;;;;;4444927;32;20584;-74
2022/07/29 08:09:34;;;;;;;0.80;0.75;;;22.00;93.00;;;;;;4444469;32;20069;-74
2022/07/29 08:12:02;;;;;;;1.87;1.02;;;21.90;93.00;;;;;;4443513;32;20140;-74
2022/07/29 08:14:27;;;;;;;0.32;0.32;;;22.10;92.60;;;;;;4444339;32;20120;-74
2022/07/29 08:16:53;;;;;;;0.47;0.47;;;22.40;92.80;;;;;;4445005;32;20068;-74
2022/07/29 08:19:18;;;;;;;0.22;0.22;;;22.50;92.20;;;;;;4443860;32;20406;-74
2022/07/29 08:21:44;;;;;;;0.50;0.32;;;22.70;91.70;;;;;;4433086;32;20969;-74
2022/07/29 08:25:09;;;;;;;0.30;0.30;;;22.80;91.40;;;;;;4427569;32;20115;-74
2022/07/29 08:26:55;;;;;;;0.82;0.50;;;23.00;91.60;;;;;;4445368;32;20127;-74
2022/07/29 08:29:20;;;;;;;0.30;0.30;;;23.00;90.40;;;;;;4444648;32;20069;-74
2022/07/29 08:31:46;;;;;;;0.20;0.20;;;22.90;90.30;;;;;;4436924;32;20561;-74
2022/07/29 08:34:11;;;;;;;0.22;0.22;;;23.00;90.30;;;;;;4435244;32;20127;-74
2022/07/29 08:36:38;;;;;;;0.25;0.25;;;23.00;90.30;;;;;;4444551;32;20061;-74
2022/07/29 08:39:04;;;;;;;0.20;0.20;;;23.10;90.10;;;;;;4444330;32;20078;-74
2022/07/29 08:41:31;;;;;;;0.30;0.30;;;23.10;89.80;;;;;;4449713;32;20081;-74
2022/07/29 08:43:56;;;;;;;0.82;0.52;;;23.10;90.00;;;;;;4460956;32;20081;-74
2022/07/29 08:46:23;;;;;;;0.50;0.50;;;23.10;89.20;;;;;;4460690;32;20056;-74
2022/07/29 08:48:48;;;;;;;0.45;0.45;;;23.00;89.40;;;;;;4460100;32;20076;-74
2022/07/29 08:51:17;;;;;;;0.80;0.40;;;22.90;90.20;;;;;;4452948;32;20116;-74
2022/07/29 08:53:45;;;;;;;0.32;0.32;;;23.00;90.20;;;;;;4442987;32;20106;-74
2022/07/29 08:56:13;;;;;;;0.68;0.55;;;23.00;90.20;;;;;;4442079;32;20085;-74
2022/07/29 08:58:39;;;;;;;0.40;0.40;;;23.00;90.10;;;;;;4445806;32;20057;-74
2022/07/29 09:01:06;;;;;;;1.05;0.55;;;23.10;90.10;;;;;;4440410;32;20466;-74
2022/07/29 09:03:35;;;;;;;0.30;0.30;;;23.20;90.90;;;;;;4435187;32;20154;-74
2022/07/29 09:06:02;;;;;;;0.20;0.20;;;23.30;90.40;;;;;;4442193;32;20065;-74
2022/07/29 09:08:28;;;;;;;0.20;0.20;;;23.50;89.50;;;;;;4444529;32;20517;-74
2022/07/29 09:10:55;;;;;;;0.47;0.40;;;23.80;89.80;;;;;;4446859;32;20065;-74
2022/07/29 09:13:21;;;;;;;0.28;0.28;;;24.00;90.30;;;;;;4444481;32;20607;-74
2022/07/29 09:15:47;;;;;;;0.20;0.20;;;24.30;87.80;;;;;;4447407;32;20064;-74
2022/07/29 09:18:30;;;;;;;0.43;0.43;;;24.40;86.80;;;;;;4459787;32;20065;-74
2022/07/29 09:21:57;;;;;;;0.20;0.20;;;24.50;85.60;;;;;;4455370;32;20525;-74
2022/07/29 09:23:58;;;;;;;0.22;0.22;;;24.30;86.30;;;;;;4439806;32;20072;-74
2022/07/29 09:26:29;;;;;;;0.50;0.30;;;24.20;86.50;;;;;;4458264;32;20068;-74
2022/07/29 09:28:54;;;;;;;0.62;0.50;;;24.20;86.20;;;;;;4462117;32;20060;-74
2022/07/29 09:31:34;;;;;;;0.30;0.30;;;24.20;87.00;;;;;;4456086;32;20069;-74
2022/07/29 09:34:00;;;;;;;1.27;0.62;;;24.20;86.60;;;;;;4452260;32;20711;-74
2022/07/29 09:36:26;;;;;;;0.47;0.47;;;24.20;85.30;;;;;;4451816;32;20426;-74
2022/07/29 09:39:00;;;;;;;0.25;0.25;;;24.20;86.90;;;;;;4446745;32;20072;-75
2022/07/29 09:41:27;;;;;;;0.10;0.10;;;24.30;87.30;;;;;;4446857;32;20130;-74
2022/07/29 09:43:55;;;;;;;0.40;0.37;;;24.60;86.30;;;;;;4447059;32;20419;-74
2022/07/29 09:46:21;;;;;;;0.40;0.40;;;24.70;82.80;;;;;;4457933;32;20073;-74
2022/07/29 09:49:06;;;;;;;0.10;0.10;;;24.80;82.50;;;;;;4462334;32;20512;-74
2022/07/29 09:51:31;;;;;;;1.25;0.30;;;24.90;81.70;;;;;;4452674;32;21146;-74
2022/07/29 09:53:57;;;;;;;0.20;0.20;;;24.90;81.30;;;;;;4442292;32;20076;-74
2022/07/29 09:56:39;;;;;;;0.88;0.35;;;24.90;79.40;;;;;;4443395;32;20524;-74
2022/07/29 09:59:06;;;;;;;18.83;0.30;;;24.90;79.80;;;;;;4446506;32;20120;-74
2022/07/29 10:01:31;;;;;;;7.25;1.48;;;24.90;79.50;;;;;;4439949;32;20508;-74
2022/07/29 10:03:57;;;;;;;0.30;0.28;;;25.10;79.60;;;;;;4436386;32;20418;-74
2022/07/29 10:06:23;;;;;;;0.30;0.30;;;25.30;79.30;;;;;;4446867;32;20081;-74
2022/07/29 10:08:49;;;;;;;0.17;0.10;;;25.50;78.30;;;;;;4446447;32;20068;-74
2022/07/29 10:11:17;;;;;;;0.10;0.10;;;25.70;76.90;;;;;;4446684;32;20086;-74
2022/07/29 10:13:45;;;;;;;0.20;0.20;;;25.90;77.30;;;;;;4455855;32;20069;-74
2022/07/29 10:16:12;;;;;;;0.20;0.20;;;26.10;75.70;;;;;;4463237;32;20562;-75
2022/07/29 10:18:39;;;;;;;0.08;0.08;;;26.00;73.70;;;;;;4462182;32;20076;-74
2022/07/29 10:21:06;;;;;;;0.55;0.55;;;26.00;73.60;;;;;;4450370;32;20061;-74
2022/07/29 10:23:34;;;;;;;1.67;0.75;;;25.90;73.50;;;;;;4442162;32;20061;-74
2022/07/29 10:26:00;;;;;;;1.45;0.30;;;26.00;73.70;;;;;;4447656;32;20065;-74
2022/07/29 10:28:25;;;;;;;0.20;0.20;;;26.00;72.90;;;;;;4445925;32;20073;-74
2022/07/29 10:30:58;;;;;;;0.20;0.20;;;26.10;72.20;;;;;;4442316;32;20116;-74
2022/07/29 10:33:51;;;;;;;0.20;0.20;;;26.30;71.40;;;;;;4435144;32;20090;-74
2022/07/29 10:36:24;;;;;;;0.52;0.40;;;26.60;71.20;;;;;;4444719;32;20073;-74
2022/07/29 10:38:54;;;;;;;0.20;0.20;;;27.00;70.00;;;;;;4446035;32;20068;-74
2022/07/29 10:41:42;;;;;;;0.20;0.20;;;27.00;69.80;;;;;;4447031;32;20480;-74
2022/07/29 10:44:25;;;;;;;0.10;0.10;;;27.00;71.50;;;;;;4456835;32;20173;-74
2022/07/29 10:46:51;;;;;;;0.25;0.25;;;26.90;70.90;;;;;;4446375;32;20473;-74
2022/07/29 10:49:20;;;;;;;0.10;0.10;;;26.50;70.60;;;;;;4446948;32;20056;-75
2022/07/29 10:51:55;;;;;;;0.10;0.10;;;26.30;70.00;;;;;;4433671;32;20061;-74
2022/07/29 10:54:41;;;;;;;0.22;0.22;;;26.00;71.20;;;;;;4427766;32;20057;-74
2022/07/29 10:57:29;;;;;;;0.10;0.10;;;26.10;72.20;;;;;;4445719;32;20078;-74
2022/07/29 11:00:16;;;;;;;4.95;1.58;;;25.90;72.10;;;;;;4444684;32;20073;-74
2022/07/29 11:02:43;;;;;;;0.40;0.30;;;25.90;73.10;;;;;;4434534;32;20439;-74
2022/07/29 11:05:11;;;;;;;0.20;0.20;;;25.80;71.80;;;;;;4440117;32;20057;-74
2022/07/29 11:07:38;;;;;;;0.30;0.30;;;25.80;72.60;;;;;;4445973;32;20086;-74
2022/07/29 11:10:20;;;;;;;2.53;0.22;;;26.30;73.10;;;;;;4446229;32;20069;-74
2022/07/29 11:12:47;;;;;;;0.37;0.37;;;27.00;71.20;;;;;;4446139;32;20418;-74
2022/07/29 11:15:18;;;;;;;0.10;0.10;;;27.40;69.20;;;;;;4450653;32;20130;-74
2022/07/29 11:18:02;;;;;;;0.62;0.47;;;27.90;68.40;;;;;;4446843;32;20065;-75
2022/07/29 11:20:33;;;;;;;0.10;0.10;;;28.10;68.80;;;;;;4445252;32;20090;-75
2022/07/29 11:22:59;;;;;;;0.10;0.10;;;28.40;67.60;;;;;;4425524;32;20124;-75
2022/07/29 11:25:25;;;;;;;4.93;0.52;;;28.60;67.30;;;;;;4436820;32;20057;-75
2022/07/29 11:27:53;;;;;;;0.15;0.15;;;29.00;67.70;;;;;;4445613;32;20119;-74
2022/07/29 11:30:19;;;;;;;0.00;0.00;;;29.30;65.60;;;;;;4453367;32;20118;-75
2022/07/29 11:32:46;;;;;;;0.13;0.13;;;29.40;65.20;;;;;;4442347;32;20064;-75
2022/07/29 11:35:18;;;;;;;0.08;0.08;;;29.80;66.70;;;;;;4454579;32;20122;-75
2022/07/29 11:37:45;;;;;;;0.25;0.22;;;29.90;64.00;;;;;;4454420;32;20057;-75
2022/07/29 11:40:13;;;;;;;8.75;0.75;;;30.10;64.90;;;;;;4462135;32;20107;-75
2022/07/29 11:42:40;;;;;;;0.30;0.20;;;29.90;63.40;;;;;;4459279;32;20064;-75
2022/07/29 11:45:18;;;;;;;0.00;0.00;;;30.30;65.60;;;;;;4449117;32;20073;-75
2022/07/29 11:47:49;;;;;;;0.28;0.28;;;30.60;64.20;;;;;;4460954;32;20115;-75
2022/07/29 11:50:17;;;;;;;0.10;0.10;;;30.70;63.30;;;;;;4450367;32;20509;-75
2022/07/29 11:52:46;;;;;;;0.28;0.28;;;30.50;64.10;;;;;;4425562;32;20073;-76
2022/07/29 11:55:15;;;;;;;4.68;0.47;;;30.70;63.90;;;;;;4443045;32;20121;-75
2022/07/29 11:57:59;;;;;;;0.20;0.20;;;31.10;63.10;;;;;;4460644;32;20065;-75
2022/07/29 12:00:29;;;;;;;11.20;0.68;;;31.40;64.30;;;;;;4458230;32;20138;-75
2022/07/29 12:02:55;;;;;;;0.20;0.20;;;31.30;64.20;;;;;;4436704;32;20127;-74
2022/07/29 12:05:31;;;;;;;0.17;0.17;;;31.70;62.90;;;;;;4455308;32;20490;-73
2022/07/29 12:08:06;;;;;;;0.80;0.40;;;31.80;61.90;;;;;;4460819;32;20088;-74
2022/07/29 12:10:32;;;;;;;0.40;0.40;;;31.70;62.90;;;;;;4461561;32;20065;-74
2022/07/29 12:12:57;;;;;;;0.68;0.40;;;31.40;62.90;;;;;;4461365;32;20077;-74
2022/07/29 12:15:23;;;;;;;0.50;0.50;;;31.50;63.90;;;;;;4461141;32;20516;-74
2022/07/29 12:17:49;;;;;;;0.10;0.10;;;32.10;62.50;;;;;;4456896;32;20065;-74
2022/07/29 12:20:24;;;;;;;0.20;0.20;;;32.10;62.50;;;;;;4444777;32;20074;-73
2022/07/29 12:22:50;;;;;;;4.65;1.37;;;32.30;62.90;;;;;;4422815;32;20061;-74
2022/07/29 12:25:18;;;;;;;2.25;0.70;;;32.80;62.20;;;;;;4433068;32;20070;-73
2022/07/29 12:27:44;;;;;;;0.20;0.20;;;32.60;61.50;;;;;;4445404;32;20073;-74
2022/07/29 12:30:11;;;;;;;0.30;0.30;;;32.40;62.20;;;;;;4443925;32;20373;-74
2022/07/29 12:32:40;;;;;;;0.30;0.30;;;32.60;62.00;;;;;;4432986;32;20518;-74
2022/07/29 12:35:09;;;;;;;0.10;0.10;;;32.70;63.40;;;;;;4437804;32;20470;-74
2022/07/29 12:37:36;;;;;;;0.40;0.40;;;33.30;61.00;;;;;;4445588;32;20077;-74
2022/07/29 12:40:04;;;;;;;0.93;0.75;;;33.40;60.60;;;;;;4444565;32;20053;-75
2022/07/29 12:42:30;;;;;;;0.30;0.30;;;32.90;62.30;;;;;;4444418;32;20502;-75
2022/07/29 12:44:55;;;;;;;0.22;0.22;;;32.10;62.90;;;;;;4444466;32;20064;-75
2022/07/29 12:47:21;;;;;;;1.10;0.57;;;31.30;63.80;;;;;;4444011;32;20065;-75
2022/07/29 12:49:47;;;;;;;0.30;0.30;;;31.70;62.90;;;;;;4460149;32;20053;-75